Monday, September 24, 2018, 5:35 PM EDT
Back to Local

KDKK, Chautauqua County/dunkirk

Location: Dunkirk, NY, United States Lat: 42.5
Local Time: 5:35 PM EDT (21:35 GMT) Lon: -79.283
Time Zone: US/Eastern Elev: 692 ft

Show me the last for .
Show Decoded

2018-09-24 16:53 METAR KDKK 242053Z AUTO 14011G18KT 10SM SCT028 BKN065 19/14 A3025 RMK AO2 SLP244
                 T01940144 56013 $ =
2018-09-24 15:53 METAR KDKK 241953Z AUTO 13012KT 10SM OVC030 20/14 A3026 RMK AO2 SLP247 T02000144
                 $ =
2018-09-24 14:53 METAR KDKK 241853Z AUTO 15010KT 10SM OVC032 21/14 A3027 RMK AO2 SLP252 T02060144
                 $ =
2018-09-24 14:02 METAR KDKK 241802Z AUTO 12011KT 10SM OVC030 21/14 A3029 RMK AO2 T02060144 $ =
2018-09-24 13:53 METAR KDKK 241753Z AUTO 13010KT 10SM OVC029 20/14 A3029 RMK AO2 SLP257 T02000144
                 10217 20100 56010 $ =
2018-09-24 12:53 METAR KDKK 241653Z AUTO 11009KT 10SM OVC027 19/14 A3030 RMK AO2 SLP259 T01940139
                 $ =
2018-09-24 12:13 METAR KDKK 241613Z AUTO 13009KT 10SM BKN024 19/14 A3031 RMK AO2 T01890139 $ =
2018-09-24 11:53 METAR KDKK 241553Z AUTO 13014G17KT 10SM SCT024 19/14 A3031 RMK AO2 SLP264
                 T01940144 $ =
2018-09-24 11:38 METAR KDKK 241538Z AUTO 11012KT 10SM SCT022 18/13 A3031 RMK AO2 T01830133 $ =
2018-09-24 10:53 METAR KDKK 241453Z AUTO 15008KT 10SM BKN021 18/13 A3032 RMK AO2 SLP269 T01780133
                 58001 $ =
2018-09-24 09:53 METAR KDKK 241353Z AUTO 11004KT 10SM OVC017 16/13 A3032 RMK AO2 SLP269 T01560128
                 =
2018-09-24 08:53 METAR KDKK 241253Z AUTO 06006KT 10SM BKN017 13/11 A3033 RMK AO2 SLP272 T01280111
                 $ =
2018-09-24 07:53 METAR KDKK 241153Z AUTO 06007KT 10SM CLR 10/09 A3033 RMK AO2 SLP271 T01000094
                 10122 20094 53014 $ =
2018-09-24 06:53 METAR KDKK 241053Z AUTO 03006KT 10SM CLR 09/09 A3031 RMK AO2 SLP264 T00940094 $
                 =
2018-09-24 05:53 METAR KDKK 240953Z AUTO 04008KT 10SM CLR 11/10 A3029 RMK AO2 SLP256 T01110100 $
                 =
2018-09-24 04:53 METAR KDKK 240853Z AUTO 04005KT 10SM CLR 11/09 A3028 RMK AO2 SLP254 T01060094
                 52001 $ =
2018-09-24 03:53 METAR KDKK 240753Z AUTO 00000KT 10SM CLR 10/10 A3028 RMK AO2 SLP254 T01000100 $
                 =
2018-09-24 02:53 METAR KDKK 240653Z AUTO 04004KT 10SM CLR 10/09 A3028 RMK AO2 SLP255 T01000094 $
                 =
2018-09-24 01:53 METAR KDKK 240553Z AUTO 07004KT 10SM CLR 10/09 A3028 RMK AO2 SLP255 T01000089
                 10150 20094 51007 $ =
2018-09-24 00:53 METAR KDKK 240453Z AUTO 08005KT 10SM CLR 12/11 A3028 RMK AO2 SLP252 T01170106
                 402000050 $ =
2018-09-23 23:53 METAR KDKK 240353Z AUTO 08004KT 10SM CLR 10/09 A3028 RMK AO2 SLP254 T01000094 $
                 =
2018-09-23 22:53 METAR KDKK 240253Z AUTO 00000KT 10SM CLR 11/09 A3026 RMK AO2 SLP247 T01060094
                 51011 $ =
2018-09-23 21:53 METAR KDKK 240153Z AUTO 00000KT 10SM CLR 11/10 A3024 RMK AO2 SLP243 T01110100 $
                 =
2018-09-23 20:53 METAR KDKK 240053Z AUTO 17003KT 10SM CLR 12/11 A3024 RMK AO2 SLP242 T01170106 $
                 =
2018-09-23 19:53 METAR KDKK 232353Z AUTO 14003KT 10SM CLR 13/11 A3023 RMK AO2 SLP238 T01280106
                 10200 20128 53010 $ =
2018-09-23 18:53 METAR KDKK 232253Z AUTO 10003KT 10SM CLR 18/11 A3021 RMK AO2 SLP231 T01780111 $
                 =
2018-09-23 17:53 METAR KDKK 232153Z AUTO 03007KT 10SM CLR 19/11 A3020 RMK AO2 SLP228 T01940106 $
                 =

Support USWX by starting your Amazon purchase here.